Time;durP1;ratioP1;P1;durP2;ratioP2;P2;SDS_P1;SDS_P2;PMS_P1;PMS_P2;Temp;Humidity;BMP_temperature;BMP_pressure;BME280_temperature;BME280_humidity;BME280_pressure;Samples;Min_cycle;Max_cycle;Signal;HPM_P1;HPM_P2
2022/02/11 00:02:19;;;;;;;;;10.50;9.25;;;;;6.51;75.09;101991.69;5035276;28;46096;-75
2022/02/11 00:07:13;;;;;;;;;9.50;9.00;;;;;6.50;75.40;102009.06;5053106;28;45743;-74
2022/02/11 00:09:39;;;;;;;;;5.25;4.00;;;;;6.48;75.01;102008.25;5053400;28;45589;-76
2022/02/11 00:17:58;;;;;;;;;12.75;11.75;;;;;6.43;75.05;102020.53;5053341;28;45766;-78
2022/02/11 00:20:24;;;;;;;;;13.50;12.00;;;;;6.40;75.24;102007.63;5053285;28;45538;-77
2022/02/11 00:22:50;;;;;;;;;15.00;12.25;;;;;6.38;75.27;102013.78;5051842;28;46732;-75
2022/02/11 00:25:17;;;;;;;;;12.50;12.00;;;;;6.35;74.88;102011.28;5054551;28;45514;-75
2022/02/11 00:28:34;;;;;;;;;12.75;10.50;;;;;6.35;74.79;102019.94;5056225;28;45608;-73
2022/02/11 00:33:28;;;;;;;;;14.25;12.50;;;;;6.27;75.14;102007.16;5055658;28;46129;-73
2022/02/11 00:38:32;;;;;;;;;12.00;11.50;;;;;6.28;74.94;102003.66;5056226;28;45626;-74
2022/02/11 00:47:04;;;;;;;;;9.00;8.50;;;;;6.27;74.94;102022.78;5055730;28;45965;-74
2022/02/11 01:05:51;;;;;;;;;9.25;9.25;;;;;6.19;74.30;102022.16;5032996;28;46043;-77
2022/02/11 01:08:17;;;;;;;;;11.75;11.50;;;;;6.03;74.48;101997.50;5033089;28;45663;-77
2022/02/11 01:14:04;;;;;;;;;11.25;9.00;;;;;6.21;74.52;102027.31;5032800;28;46132;-76
2022/02/11 01:16:44;;;;;;;;;10.75;10.75;;;;;6.20;74.12;102028.22;5033129;28;46165;-76
2022/02/11 01:21:57;;;;;;;;;15.00;10.25;;;;;6.22;74.20;102034.22;5034899;28;45684;-77
2022/02/11 01:30:54;;;;;;;;;13.25;9.00;;;;;6.21;73.97;102037.72;5034511;28;45536;-75
2022/02/11 02:16:37;;;;;;;;;5.75;4.00;;;;;6.04;73.03;102079.88;5055357;28;45475;-76
2022/02/11 02:34:20;;;;;;;;;6.25;5.00;;;;;6.02;72.28;102092.06;4992665;28;45951;-77
2022/02/11 03:48:39;;;;;;;;;9.25;5.50;;;;;5.76;71.89;102136.94;5054087;28;46157;-74
2022/02/11 04:56:56;;;;;;;;;6.25;5.50;;;;;5.48;72.47;102242.50;5056110;28;45763;-76
2022/02/11 05:02:48;;;;;;;;;5.00;5.00;;;;;5.40;72.23;102241.81;5056039;28;45598;-76
2022/02/11 05:05:15;;;;;;;;;5.00;5.00;;;;;5.43;72.16;102257.38;5054927;28;46747;-74
2022/02/11 05:07:40;;;;;;;;;1.00;1.00;;;;;5.40;72.69;102253.06;5056044;28;45981;-77
2022/02/11 05:10:07;;;;;;;;;10.75;8.75;;;;;5.35;72.40;102251.47;5054887;28;45868;-75
2022/02/11 05:12:34;;;;;;;;;8.50;5.75;;;;;5.36;72.68;102261.84;5055163;28;45523;-75
2022/02/11 05:18:21;;;;;;;;;7.00;4.50;;;;;5.32;72.30;102259.34;5056130;28;46196;-80
2022/02/11 05:20:47;;;;;;;;;5.25;4.00;;;;;5.26;72.24;102252.56;5056215;28;45609;-75
2022/02/11 05:23:14;;;;;;;;;7.00;4.50;;;;;5.36;72.35;102266.19;5056090;28;45761;-75
2022/02/11 05:25:42;;;;;;;;;8.00;7.25;;;;;5.31;72.51;102260.25;5055885;28;46572;-73
2022/02/11 05:28:09;;;;;;;;;6.25;6.25;;;;;5.35;72.45;102274.84;5054070;28;46741;-75
2022/02/11 05:30:38;;;;;;;;;6.75;6.25;;;;;5.34;72.46;102267.97;5056063;28;45774;-74
2022/02/11 05:33:05;;;;;;;;;8.25;6.75;;;;;5.26;72.67;102270.75;5055820;28;45583;-74
2022/02/11 05:35:31;;;;;;;;;4.25;4.25;;;;;5.32;72.87;102288.78;5054326;28;46449;-75
2022/02/11 05:37:57;;;;;;;;;8.00;5.25;;;;;5.33;72.37;102287.06;5055216;28;45676;-72
2022/02/11 05:40:23;;;;;;;;;8.00;5.00;;;;;5.27;72.64;102276.78;5055730;28;45617;-72
2022/02/11 05:42:49;;;;;;;;;6.75;5.75;;;;;5.33;72.33;102290.50;5055882;28;45664;-74
2022/02/11 05:48:39;;;;;;;;;6.00;5.00;;;;;5.33;72.10;102295.72;5053711;28;46100;-76
2022/02/11 05:51:07;;;;;;;;;9.25;6.25;;;;;5.34;72.20;102305.22;5055748;28;45800;-76
2022/02/11 05:53:33;;;;;;;;;5.25;4.50;;;;;5.34;71.88;102306.97;5055625;28;45680;-73
2022/02/11 05:55:59;;;;;;;;;6.25;6.25;;;;;5.33;72.13;102300.91;5054701;28;47575;-76
2022/02/11 05:58:24;;;;;;;;;6.75;6.00;;;;;5.28;72.31;102286.31;5055350;28;46156;-78
2022/02/11 06:00:49;;;;;;;;;12.00;6.00;;;;;5.35;72.57;102299.09;5055569;28;45505;-73
2022/02/11 06:03:15;;;;;;;;;8.00;7.00;;;;;5.34;72.23;102312.16;5056643;28;45706;-73
2022/02/11 06:05:40;;;;;;;;;5.25;5.25;;;;;5.36;72.07;102321.59;5057241;28;46413;-75
2022/02/11 06:08:05;;;;;;;;;6.50;5.00;;;;;5.28;71.97;102307.94;5056811;28;46233;-75
2022/02/11 06:10:31;;;;;;;;;7.75;5.00;;;;;5.38;72.54;102329.38;5056280;28;46047;-73
2022/02/11 06:12:56;;;;;;;;;5.75;4.25;;;;;5.38;72.43;102326.78;5055474;28;45657;-74
2022/02/11 06:18:43;;;;;;;;;8.75;7.00;;;;;5.41;71.94;102321.50;5054760;28;46243;-72
2022/02/11 06:21:08;;;;;;;;;7.75;7.75;;;;;5.40;71.90;102320.66;5037096;28;45607;-75
2022/02/11 06:23:34;;;;;;;;;7.25;5.25;;;;;5.37;71.91;102320.72;5054529;28;45531;-76
2022/02/11 06:25:59;;;;;;;;;6.25;5.00;;;;;5.40;72.28;102336.25;5055015;28;46238;-76
2022/02/11 06:28:25;;;;;;;;;10.00;7.50;;;;;5.40;72.17;102341.44;5055072;28;45624;-75
2022/02/11 06:30:50;;;;;;;;;2.00;0.75;;;;;5.40;71.96;102346.63;5055120;28;45544;-77
2022/02/11 06:33:15;;;;;;;;;8.00;5.00;;;;;5.38;71.78;102343.22;5055077;28;45506;-77
2022/02/11 06:35:44;;;;;;;;;5.00;4.50;;;;;5.37;72.04;102349.31;5055042;28;46999;-76
2022/02/11 06:38:09;;;;;;;;;5.50;5.00;;;;;5.41;71.79;102350.09;5036250;28;48245;-76
2022/02/11 06:40:35;;;;;;;;;5.25;4.50;;;;;5.40;71.99;102351.84;5053975;28;45781;-77
2022/02/11 06:43:00;;;;;;;;;6.25;6.25;;;;;5.41;72.19;102357.88;5054774;28;45755;-77
2022/02/11 06:48:48;;;;;;;;;8.00;7.00;;;;;5.42;71.77;102370.84;5054182;28;46138;-77
2022/02/11 06:51:15;;;;;;;;;9.00;5.00;;;;;5.44;71.79;102373.44;5054553;28;45612;-75
2022/02/11 06:53:41;;;;;;;;;10.75;7.50;;;;;5.44;71.90;102373.44;5054431;28;45593;-78
2022/02/11 06:56:06;;;;;;;;;8.25;6.25;;;;;5.45;71.84;102377.75;5054579;28;45511;-78
2022/02/11 06:58:32;;;;;;;;;5.00;5.00;;;;;5.44;71.55;102378.63;5054477;28;46191;-77
2022/02/11 07:04:18;;;;;;;;;9.00;6.25;;;;;5.44;71.92;102384.69;5054050;28;45713;-71
2022/02/11 07:06:44;;;;;;;;;7.00;5.50;;;;;5.44;72.05;102386.44;5053851;28;46574;-73
2022/02/11 07:09:09;;;;;;;;;7.00;5.00;;;;;5.47;71.97;102404.53;5054063;28;47130;-75
2022/02/11 07:11:35;;;;;;;;;8.75;7.50;;;;;5.47;72.02;102414.94;5053979;28;45555;-76
2022/02/11 07:14:00;;;;;;;;;10.50;8.75;;;;;5.49;71.78;102418.38;5054154;28;45561;-74
2022/02/11 07:16:26;;;;;;;;;11.25;9.25;;;;;5.48;71.72;102425.31;5053886;28;47803;-75
2022/02/11 07:18:51;;;;;;;;;7.00;5.00;;;;;5.48;71.98;102429.66;5054364;28;45538;-72
2022/02/11 07:21:16;;;;;;;;;7.00;5.75;;;;;5.50;71.60;102435.69;5054155;28;45451;-76
2022/02/11 07:23:42;;;;;;;;;10.00;8.00;;;;;5.50;72.22;102446.09;5054523;28;45471;-73
2022/02/11 07:26:07;;;;;;;;;8.25;6.25;;;;;5.48;71.83;102440.91;5054233;28;47052;-73
2022/02/11 07:28:32;;;;;;;;;6.25;6.00;;;;;5.53;71.58;102451.22;5054419;28;46178;-74
2022/02/11 07:34:19;;;;;;;;;5.25;5.25;;;;;5.45;71.53;102453.94;5055021;28;45646;-73
2022/02/11 07:36:45;;;;;;;;;5.00;5.00;;;;;5.49;71.51;102470.34;5057944;28;47138;-75
2022/02/11 07:39:11;;;;;;;;;5.25;5.00;;;;;5.49;71.98;102480.75;5058657;28;46381;-74
2022/02/11 07:41:37;;;;;;;;;8.00;7.00;;;;;5.49;71.40;102484.22;5058292;28;45747;-74
2022/02/11 07:44:02;;;;;;;;;8.00;5.25;;;;;5.50;71.29;102479.88;5058361;28;45533;-74
2022/02/11 07:46:28;;;;;;;;;8.50;6.25;;;;;5.51;71.19;102475.53;5057565;28;46638;-75
2022/02/11 07:48:55;;;;;;;;;8.50;6.25;;;;;5.49;71.67;102472.97;5057118;28;46418;-74
2022/02/11 07:51:20;;;;;;;;;8.00;5.25;;;;;5.53;71.78;102479.81;5057184;28;45574;-72
2022/02/11 07:53:45;;;;;;;;;8.00;5.50;;;;;5.56;71.72;102487.53;5057263;28;45729;-74
2022/02/11 07:56:12;;;;;;;;;6.25;5.00;;;;;5.58;71.68;102501.34;5056828;28;45590;-74
2022/02/11 07:58:37;;;;;;;;;6.25;6.25;;;;;5.54;71.40;102489.31;5057253;28;47206;-74
2022/02/11 08:04:24;;;;;;;;;8.00;8.00;;;;;5.65;71.40;102502.97;5057367;28;45578;-73
2022/02/11 08:06:49;;;;;;;;;8.00;8.00;;;;;5.67;71.86;102501.16;5057081;28;45594;-73
2022/02/11 08:09:15;;;;;;;;;11.00;7.50;;;;;5.66;71.92;102503.81;5056712;28;45741;-74
2022/02/11 08:11:41;;;;;;;;;12.50;6.25;;;;;5.72;71.37;102503.69;5057355;28;45771;-75
2022/02/11 08:14:06;;;;;;;;;8.25;8.00;;;;;5.67;71.38;102506.38;5055542;28;45860;-74
2022/02/11 08:19:53;;;;;;;;;11.75;9.00;;;;;5.80;71.71;102517.38;5056643;28;46207;-74
2022/02/11 08:22:19;;;;;;;;;9.50;8.00;;;;;5.80;71.55;102527.78;5057052;28;45632;-74
2022/02/11 08:24:44;;;;;;;;;8.25;7.50;;;;;5.75;70.97;102527.88;5057282;28;45534;-75
2022/02/11 08:27:13;;;;;;;;;15.00;9.00;;;;;5.81;71.53;102532.09;5056918;28;46185;-77
2022/02/11 08:29:39;;;;;;;;;8.75;8.00;;;;;5.78;71.30;102534.75;5056999;28;46050;-75
2022/02/11 08:32:05;;;;;;;;;10.00;8.50;;;;;5.85;71.51;102545.00;5056890;28;45693;-75
2022/02/11 08:34:30;;;;;;;;;13.25;9.75;;;;;5.91;71.03;102557.06;5056482;28;45581;-74
2022/02/11 08:36:56;;;;;;;;;18.00;10.25;;;;;5.94;70.98;102556.16;5056351;28;46753;-76
2022/02/11 08:39:21;;;;;;;;;8.00;7.00;;;;;5.92;71.36;102556.19;5056533;28;45570;-76
2022/02/11 08:41:48;;;;;;;;;11.25;8.75;;;;;5.95;70.96;102558.72;5056604;28;45534;-76
2022/02/11 08:44:13;;;;;;;;;8.00;8.00;;;;;5.95;71.25;102560.44;5056636;28;45494;-76
2022/02/11 08:50:00;;;;;;;;;8.25;8.00;;;;;5.94;70.84;102570.00;5054624;28;45724;-76
2022/02/11 08:52:27;;;;;;;;;8.00;6.50;;;;;5.98;70.88;102576.00;5055076;28;45636;-75
2022/02/11 08:54:53;;;;;;;;;9.50;8.00;;;;;5.97;71.02;102563.88;5056782;28;45776;-76
2022/02/11 08:57:19;;;;;;;;;12.00;7.00;;;;;6.01;70.67;102571.59;5056040;28;46605;-76
2022/02/11 08:59:44;;;;;;;;;12.25;12.25;;;;;6.03;71.04;102569.84;5056287;28;46416;-76
2022/02/11 09:02:11;;;;;;;;;15.00;8.75;;;;;6.06;70.79;102580.16;5056886;28;45525;-76
2022/02/11 09:04:39;;;;;;;;;11.50;9.00;;;;;6.08;70.87;102583.59;5056671;28;45612;-75
2022/02/11 09:07:05;;;;;;;;;9.50;9.50;;;;;6.11;70.88;102578.31;5056389;28;45690;-74
2022/02/11 09:09:30;;;;;;;;;12.25;9.75;;;;;6.14;70.81;102583.47;5056730;28;47002;-75
2022/02/11 09:11:56;;;;;;;;;12.50;10.25;;;;;6.15;70.89;102582.59;5055342;28;45785;-73
2022/02/11 09:14:21;;;;;;;;;8.75;7.50;;;;;6.23;70.86;102592.81;5057934;28;45448;-74
2022/02/11 09:20:09;;;;;;;;;11.50;8.00;;;;;6.28;70.85;102611.78;5055996;28;45799;-75
2022/02/11 09:22:35;;;;;;;;;10.00;9.00;;;;;6.23;70.70;102609.28;5054516;28;45824;-75
2022/02/11 09:25:00;;;;;;;;;23.00;16.25;;;;;6.33;70.46;102617.75;5056432;28;45692;-73
2022/02/11 09:27:25;;;;;;;;;7.00;4.00;;;;;6.35;70.23;102621.19;5056092;28;45611;-76
2022/02/11 09:29:51;;;;;;;;;14.75;12.75;;;;;6.36;70.50;102619.47;5055984;28;45942;-76
2022/02/11 09:35:39;;;;;;;;;8.00;7.00;;;;;6.42;70.13;102633.22;5055677;28;45720;-76
2022/02/11 09:38:05;;;;;;;;;9.50;6.50;;;;;6.48;70.22;102640.84;5071405;28;46708;-74
2022/02/11 09:40:30;;;;;;;;;8.00;6.00;;;;;6.46;69.91;102621.81;5055538;28;45626;-78
2022/02/11 09:42:56;;;;;;;;;6.25;3.50;;;;;6.50;70.09;102627.81;5055457;28;45725;-76
2022/02/11 09:45:24;;;;;;;;;8.25;5.75;;;;;6.54;70.06;102632.91;5056149;28;45717;-77
2022/02/11 09:47:50;;;;;;;;;8.25;7.50;;;;;6.58;70.35;102639.78;5055702;28;45731;-76
2022/02/11 09:50:18;;;;;;;;;9.00;7.00;;;;;6.63;70.16;102640.56;5053958;28;46009;-74
2022/02/11 09:52:49;;;;;;;;;12.00;9.00;;;;;6.68;69.83;102646.50;5055203;28;45629;-74
2022/02/11 09:57:59;;;;;;;;;10.00;8.75;;;;;6.68;69.70;102635.25;5054996;28;45893;-76
2022/02/11 10:00:26;;;;;;;;;9.00;7.00;;;;;6.79;70.00;102643.66;5055753;28;46071;-73
2022/02/11 10:02:54;;;;;;;;;14.00;11.75;;;;;6.85;69.62;102653.09;5055138;28;45627;-75
2022/02/11 10:05:25;;;;;;;;;14.75;11.75;;;;;6.89;69.64;102642.56;5055328;28;45741;-77
2022/02/11 10:07:51;;;;;;;;;35.50;29.75;;;;;6.93;69.72;102649.41;5054784;28;47942;-77
2022/02/11 10:10:38;;;;;;;;;12.75;8.50;;;;;6.99;69.82;102651.88;5054965;28;47258;-77
2022/02/11 10:13:11;;;;;;;;;10.25;9.00;;;;;7.03;69.45;102648.28;5055302;28;45792;-74
2022/02/11 10:15:43;;;;;;;;;9.00;6.00;;;;;7.06;69.04;102645.63;5055144;28;45700;-75
2022/02/11 10:18:09;;;;;;;;;7.50;6.50;;;;;7.12;69.43;102647.25;5055100;28;46323;-76
2022/02/11 10:20:42;;;;;;;;;9.25;9.25;;;;;7.15;69.07;102652.38;5055348;28;46524;-74
2022/02/11 10:23:27;;;;;;;;;11.25;10.00;;;;;7.23;69.23;102660.00;5054519;28;45559;-75
2022/02/11 10:25:54;;;;;;;;;11.25;10.50;;;;;7.25;69.00;102653.84;5055276;28;45452;-75
2022/02/11 10:28:40;;;;;;;;;9.00;7.00;;;;;7.31;69.06;102656.31;5054935;28;47621;-77
2022/02/11 10:31:26;;;;;;;;;30.00;28.00;;;;;7.33;68.72;102670.19;5054681;28;46033;-76
2022/02/11 10:34:09;;;;;;;;;5.50;5.00;;;;;7.38;68.33;102665.72;5055038;28;45596;-74
2022/02/11 10:36:48;;;;;;;;;8.50;6.75;;;;;7.44;68.29;102681.19;5054215;28;45541;-74
2022/02/11 10:39:16;;;;;;;;;9.00;8.00;;;;;7.49;68.51;102673.25;5054486;28;46380;-73
2022/02/11 10:41:52;;;;;;;;;14.75;12.00;;;;;7.55;67.91;102678.31;5053590;28;46606;-76
2022/02/11 10:44:19;;;;;;;;;7.50;6.00;;;;;7.52;68.08;102678.38;5055068;28;46045;-74
2022/02/11 10:47:07;;;;;;;;;8.75;7.25;;;;;7.55;67.92;102676.56;5037772;28;45604;-77
2022/02/11 10:49:44;;;;;;;;;8.75;8.75;;;;;7.59;67.71;102683.41;5056834;28;46907;-75
2022/02/11 10:52:23;;;;;;;;;7.00;6.00;;;;;7.65;67.57;102689.38;5056984;28;46594;-74
2022/02/11 10:54:54;;;;;;;;;9.50;7.00;;;;;7.69;67.46;102691.88;5056016;28;45968;-77
2022/02/11 10:57:26;;;;;;;;;6.50;6.25;;;;;7.71;67.22;102686.63;5054721;28;45573;-75
2022/02/11 10:59:52;;;;;;;;;6.00;6.00;;;;;7.74;67.03;102689.13;5054393;28;47425;-75
2022/02/11 11:02:22;;;;;;;;;6.00;6.00;;;;;7.77;67.01;102694.28;5054132;28;46482;-75
2022/02/11 11:04:50;;;;;;;;;6.75;6.50;;;;;7.65;66.74;102676.34;5055867;28;45564;-77
2022/02/11 11:07:29;;;;;;;;;6.00;6.00;;;;;7.85;66.61;102687.97;5057404;28;45637;-78
2022/02/11 11:09:56;;;;;;;;;23.75;20.00;;;;;7.79;66.64;102666.38;5037956;28;48633;-76
2022/02/11 11:12:26;;;;;;;;;10.25;7.00;;;;;7.94;65.98;102697.28;5055985;28;46224;-76
2022/02/11 11:14:57;;;;;;;;;6.00;6.00;;;;;7.96;66.28;102678.09;5057877;28;45970;-76
2022/02/11 11:17:24;;;;;;;;;4.00;3.00;;;;;7.95;66.12;102673.75;5057952;28;46017;-77
2022/02/11 11:19:53;;;;;;;;;4.50;4.50;;;;;8.02;66.20;102680.53;5055129;28;46867;-75
2022/02/11 11:22:25;;;;;;;;;7.75;7.75;;;;;8.00;65.96;102674.50;5053701;28;46328;-74
2022/02/11 11:24:58;;;;;;;;;11.50;7.00;;;;;8.08;65.94;102676.06;5053344;28;46016;-73
2022/02/11 11:27:44;;;;;;;;;6.50;5.75;;;;;8.13;66.20;102676.78;5069578;28;45644;-76
2022/02/11 11:30:36;;;;;;;;;6.75;6.00;;;;;8.16;66.05;102690.59;5054032;28;46930;-75
2022/02/11 11:33:05;;;;;;;;;8.00;6.50;;;;;8.18;65.72;102680.13;5054089;28;46028;-72
2022/02/11 11:35:43;;;;;;;;;5.75;5.25;;;;;8.19;65.59;102679.22;5053749;28;45551;-74
2022/02/11 11:38:25;;;;;;;;;10.00;6.00;;;;;8.23;65.34;102686.94;5054070;28;45515;-74
2022/02/11 11:41:14;;;;;;;;;11.50;11.00;;;;;8.29;65.28;102683.28;5053843;28;47813;-75
2022/02/11 11:43:44;;;;;;;;;13.25;11.00;;;;;8.33;65.21;102688.41;5053776;28;45661;-77
2022/02/11 11:49:46;;;;;;;;;10.75;10.25;;;;;8.41;65.21;102686.44;5053863;28;45649;-75
2022/02/11 11:52:12;;;;;;;;;9.00;6.00;;;;;8.50;64.82;102687.06;5053654;28;46860;-79
2022/02/11 11:54:37;;;;;;;;;20.00;17.00;;;;;8.54;64.76;102686.06;5052092;28;47864;-75
2022/02/11 11:57:11;;;;;;;;;11.75;7.25;;;;;8.59;64.39;102681.56;5053568;28;45669;-75
2022/02/11 11:59:56;;;;;;;;;11.50;9.50;;;;;8.66;64.23;102697.03;5053870;28;45631;-74
2022/02/11 12:05:53;;;;;;;;;10.75;7.75;;;;;8.76;63.69;102676.69;5053597;28;46069;-74
2022/02/11 12:08:20;;;;;;;;;10.00;8.75;;;;;8.79;63.43;102674.88;5054049;28;45891;-77
2022/02/11 12:10:49;;;;;;;;;14.00;9.75;;;;;8.75;63.54;102678.44;5054327;28;45627;-77
2022/02/11 12:13:16;;;;;;;;;3.00;3.00;;;;;8.80;62.91;102673.06;5054050;28;47432;-75
2022/02/11 12:15:42;;;;;;;;;11.50;10.25;;;;;8.87;62.79;102668.53;5035578;28;48613;-78
2022/02/11 12:21:29;;;;;;;;;9.00;7.00;;;;;9.02;63.14;102668.03;5057012;28;45668;-75
2022/02/11 12:29:25;;;;;;;;;7.00;6.75;;;;;9.23;62.85;102670.00;5059993;28;45805;-75
2022/02/11 12:31:51;;;;;;;;;5.75;5.00;;;;;9.17;63.13;102659.72;5085462;28;46007;-75
2022/02/11 12:34:17;;;;;;;;;10.25;8.00;;;;;9.27;62.70;102672.47;5075625;28;46345;-74
2022/02/11 12:36:43;;;;;;;;;8.00;7.00;;;;;9.27;62.06;102669.00;5075183;28;45466;-75
2022/02/11 12:39:19;;;;;;;;;8.50;7.50;;;;;9.18;62.26;102643.97;5071123;28;45609;-77
2022/02/11 12:41:50;;;;;;;;;6.50;6.50;;;;;9.28;62.29;102655.84;5066895;28;45531;-75
2022/02/11 12:44:27;;;;;;;;;8.00;6.50;;;;;9.27;61.54;102662.00;5064052;28;47462;-77
2022/02/11 12:46:54;;;;;;;;;9.00;7.50;;;;;9.33;61.73;102654.84;5064835;28;46052;-77
2022/02/11 12:49:20;;;;;;;;;7.50;6.25;;;;;9.36;61.59;102652.13;5070169;28;45286;-77
2022/02/11 12:51:51;;;;;;;;;8.00;7.00;;;;;9.41;61.66;102650.22;5058446;28;45478;-75
2022/02/11 12:54:18;;;;;;;;;9.25;8.00;;;;;9.46;61.85;102638.69;5061977;28;47744;-75
2022/02/11 12:56:44;;;;;;;;;8.50;8.00;;;;;9.52;61.40;102648.94;5072412;28;46409;-75
2022/02/11 12:59:10;;;;;;;;;12.00;7.75;;;;;9.58;61.17;102637.41;5060292;28;46022;-77
2022/02/11 13:01:35;;;;;;;;;8.50;7.75;;;;;9.65;61.43;102645.03;5057893;28;45675;-75
2022/02/11 13:07:22;;;;;;;;;7.00;6.25;;;;;9.79;61.20;102641.91;5057444;28;45616;-77
2022/02/11 13:09:48;;;;;;;;;12.75;7.75;;;;;9.85;61.30;102638.22;5057099;28;45617;-78
2022/02/11 13:12:14;;;;;;;;;6.75;5.25;;;;;9.91;61.21;102649.34;5057304;28;45463;-78
2022/02/11 13:14:43;;;;;;;;;7.00;7.00;;;;;9.87;60.52;102631.19;5057001;28;45873;-80
2022/02/11 13:17:09;;;;;;;;;4.00;3.50;;;;;9.88;60.71;102627.66;5056303;28;47569;-79
2022/02/11 13:19:34;;;;;;;;;4.00;4.00;;;;;9.92;60.24;102644.97;5056628;28;45594;-77
2022/02/11 13:22:00;;;;;;;;;5.00;3.25;;;;;9.94;60.33;102648.34;5056263;28;45593;-76
2022/02/11 13:24:25;;;;;;;;;6.00;4.50;;;;;9.88;59.76;102640.75;5056033;28;46747;-78
2022/02/11 13:26:52;;;;;;;;;3.00;3.00;;;;;9.88;59.45;102641.56;5055999;28;47096;-79
2022/02/11 13:29:18;;;;;;;;;4.00;4.00;;;;;9.80;59.48;102635.78;5055948;28;45888;-79
2022/02/11 13:31:49;;;;;;;;;4.00;3.00;;;;;9.80;59.79;102633.16;5055598;28;45547;-78
2022/02/11 13:37:40;;;;;;;;;6.00;3.00;;;;;9.83;59.38;102637.41;5055857;28;45964;-79
2022/02/11 13:40:26;;;;;;;;;3.00;2.00;;;;;9.77;59.56;102628.00;5056469;28;45689;-79
2022/02/11 13:42:59;;;;;;;;;6.50;4.50;;;;;9.87;59.36;102632.03;5056031;28;45425;-78
2022/02/11 13:45:25;;;;;;;;;3.00;3.00;;;;;9.86;58.92;102635.56;5056027;28;45939;-77
2022/02/11 13:47:57;;;;;;;;;7.00;6.00;;;;;9.91;58.80;102633.63;5055877;28;45617;-76
2022/02/11 13:50:23;;;;;;;;;4.00;4.00;;;;;9.93;58.57;102625.72;5055438;28;45853;-77
2022/02/11 13:53:02;;;;;;;;;7.25;4.00;;;;;9.89;58.96;102611.00;5055885;28;45573;-76
2022/02/11 13:55:27;;;;;;;;;7.00;4.25;;;;;10.02;58.89;102617.53;5055614;28;46262;-77
2022/02/11 13:57:52;;;;;;;;;4.25;3.75;;;;;10.11;58.55;102630.28;5055398;28;46178;-76
2022/02/11 14:00:37;;;;;;;;;4.00;3.00;;;;;10.16;58.54;102620.50;5055514;28;45686;-76
2022/02/11 14:03:04;;;;;;;;;6.75;3.75;;;;;10.24;58.27;102617.63;5055552;28;45554;-76
2022/02/11 14:05:44;;;;;;;;;3.75;3.25;;;;;10.23;58.29;102606.28;5037652;28;46523;-77
2022/02/11 14:08:09;;;;;;;;;6.75;4.00;;;;;10.34;58.34;102608.50;5071142;28;47653;-77
2022/02/11 14:10:35;;;;;;;;;6.00;4.50;;;;;10.45;58.38;102614.19;5055644;28;45676;-74
2022/02/11 14:13:05;;;;;;;;;8.00;6.00;;;;;10.52;58.31;102619.16;5055702;28;45538;-75
2022/02/11 14:15:31;;;;;;;;;3.00;3.00;;;;;10.57;57.87;102612.88;5055174;28;47545;-75
2022/02/11 14:17:56;;;;;;;;;3.00;3.00;;;;;10.61;57.31;102603.97;5055504;28;46270;-77
2022/02/11 14:20:22;;;;;;;;;4.50;3.50;;;;;10.66;57.33;102612.50;5055504;28;45571;-76
2022/02/11 14:22:47;;;;;;;;;3.75;3.00;;;;;10.68;57.25;102602.81;5055413;28;45690;-76
2022/02/11 14:25:13;;;;;;;;;4.50;4.00;;;;;10.70;57.02;102604.44;5055385;28;46575;-77
2022/02/11 14:27:38;;;;;;;;;4.00;3.00;;;;;10.67;57.17;102595.88;5055364;28;46252;-77
2022/02/11 14:30:04;;;;;;;;;6.00;6.00;;;;;10.68;56.39;102600.19;5055218;28;45606;-76
2022/02/11 14:32:29;;;;;;;;;7.00;5.50;;;;;10.69;56.61;102602.72;5055371;28;45501;-77
2022/02/11 14:38:16;;;;;;;;;5.50;5.50;;;;;10.64;56.63;102614.31;5055422;28;46408;-76
2022/02/11 14:43:26;;;;;;;;;7.50;6.75;;;;;10.58;56.27;102612.78;5055458;28;45539;-77
2022/02/11 14:45:51;;;;;;;;;6.50;6.00;;;;;10.55;56.49;102615.53;5054577;28;45957;-77
2022/02/11 14:48:17;;;;;;;;;6.50;6.00;;;;;10.52;56.08;102607.81;5054809;28;47269;-78
2022/02/11 14:50:43;;;;;;;;;8.75;6.50;;;;;10.46;55.95;102600.19;5054819;28;45651;-77
2022/02/11 14:53:09;;;;;;;;;6.75;4.00;;;;;10.46;56.29;102602.81;5054918;28;45604;-77
2022/02/11 14:55:36;;;;;;;;;7.00;6.00;;;;;10.44;56.49;102602.00;5054476;28;45660;-76
2022/02/11 14:58:02;;;;;;;;;6.00;4.00;;;;;10.47;56.44;102607.13;5054158;28;47211;-77
2022/02/11 15:00:29;;;;;;;;;6.50;4.50;;;;;10.46;56.67;102600.19;5036461;28;45814;-77
2022/02/11 15:02:56;;;;;;;;;7.25;7.00;;;;;10.50;56.62;102615.72;5054006;28;45895;-77
2022/02/11 15:05:21;;;;;;;;;7.75;6.00;;;;;10.42;56.24;102588.94;5053389;28;46692;-76
2022/02/11 15:07:47;;;;;;;;;3.75;3.00;;;;;10.59;56.34;102609.25;5054266;28;46028;-77
2022/02/11 15:10:12;;;;;;;;;6.00;6.00;;;;;10.60;55.74;102608.34;5019584;28;45607;-77
2022/02/11 15:12:39;;;;;;;;;3.75;3.00;;;;;10.57;55.84;102600.63;5054588;28;45614;-75
2022/02/11 15:15:07;;;;;;;;;7.00;5.50;;;;;10.53;55.64;102583.28;5054189;28;46477;-78
2022/02/11 15:17:34;;;;;;;;;4.50;4.00;;;;;10.65;55.78;102601.16;5054341;28;46197;-76
2022/02/11 15:20:00;;;;;;;;;6.00;3.75;;;;;10.62;55.58;102590.81;5054482;28;45563;-76
2022/02/11 15:22:27;;;;;;;;;3.00;2.75;;;;;10.70;55.78;102601.81;5052922;28;45984;-78
2022/02/11 15:24:52;;;;;;;;;4.00;4.00;;;;;10.70;55.17;102593.09;5054112;28;48031;-77
2022/02/11 15:27:18;;;;;;;;;6.25;5.75;;;;;10.70;55.35;102596.59;5053956;28;46859;-77
2022/02/11 15:29:45;;;;;;;;;4.00;4.00;;;;;10.68;55.05;102590.56;5054195;28;45627;-75
2022/02/11 15:32:11;;;;;;;;;4.00;4.00;;;;;10.72;54.41;102588.66;5053677;28;45824;-79
2022/02/11 15:34:38;;;;;;;;;6.50;6.00;;;;;10.65;54.90;102572.31;5054195;28;45460;-78
2022/02/11 15:37:05;;;;;;;;;5.50;4.00;;;;;10.75;55.18;102588.53;5053917;28;45588;-78
2022/02/11 15:39:32;;;;;;;;;4.00;4.00;;;;;10.67;54.92;102569.66;5054202;28;45555;-77
2022/02/11 15:41:57;;;;;;;;;6.25;4.00;;;;;10.74;54.68;102577.19;5054308;28;45812;-78
2022/02/11 15:44:23;;;;;;;;;8.00;6.00;;;;;10.77;54.60;102586.72;5054002;28;46228;-78
2022/02/11 15:46:48;;;;;;;;;6.50;5.00;;;;;10.72;54.42;102578.19;5035783;28;46082;-79
2022/02/11 15:49:13;;;;;;;;;3.50;2.50;;;;;10.73;54.50;102579.91;5053596;28;45786;-79
2022/02/11 15:51:39;;;;;;;;;4.75;3.50;;;;;10.64;53.71;102565.38;5054536;28;45618;-78
2022/02/11 15:54:05;;;;;;;;;6.50;5.00;;;;;10.58;54.20;102551.69;5053972;28;46636;-77
2022/02/11 15:56:31;;;;;;;;;6.00;4.00;;;;;10.62;53.95;102567.22;5056267;28;47017;-76
2022/02/11 15:58:56;;;;;;;;;4.00;4.00;;;;;10.52;53.39;102561.50;5058003;28;45756;-78
2022/02/11 16:01:22;;;;;;;;;7.25;4.00;;;;;10.55;53.59;102567.50;5057600;28;45502;-78
2022/02/11 16:03:47;;;;;;;;;3.50;3.50;;;;;10.52;53.63;102576.38;5056926;28;46681;-77
2022/02/11 16:06:13;;;;;;;;;3.00;2.00;;;;;10.41;53.68;102562.81;5057610;28;45706;-77
2022/02/11 16:08:39;;;;;;;;;6.00;4.00;;;;;10.43;54.07;102572.31;5056727;28;45601;-78
2022/02/11 16:11:05;;;;;;;;;7.25;3.25;;;;;10.41;54.09;102576.78;5057461;28;46017;-77
2022/02/11 16:13:30;;;;;;;;;4.50;4.00;;;;;10.38;54.43;102574.25;5057690;28;46695;-76
2022/02/11 16:15:57;;;;;;;;;4.00;4.00;;;;;10.36;53.89;102572.63;5056736;28;47203;-77
2022/02/11 16:18:26;;;;;;;;;4.00;3.75;;;;;10.27;53.99;102562.47;5057095;28;45813;-75
2022/02/11 16:24:12;;;;;;;;;3.00;2.50;;;;;10.26;54.09;102571.25;5056833;28;45940;-77
2022/02/11 16:26:38;;;;;;;;;2.50;2.50;;;;;10.28;54.26;102572.06;5056634;28;46982;-77
2022/02/11 16:29:04;;;;;;;;;5.50;5.50;;;;;10.31;54.32;102582.44;5056959;28;45731;-77
2022/02/11 16:31:30;;;;;;;;;6.00;4.00;;;;;10.32;54.31;102578.88;5056904;28;45823;-76
2022/02/11 16:33:57;;;;;;;;;3.50;3.00;;;;;10.30;54.17;102580.72;5056437;28;46299;-75
2022/02/11 16:36:26;;;;;;;;;3.75;3.00;;;;;10.30;54.29;102573.72;5056172;28;46151;-77
2022/02/11 16:39:31;;;;;;;;;4.50;4.50;;;;;10.29;54.53;102581.63;5056500;28;45545;-77
2022/02/11 16:42:12;;;;;;;;;3.00;2.00;;;;;10.27;54.38;102581.69;5054870;28;45728;-77
2022/02/11 16:44:38;;;;;;;;;3.00;3.00;;;;;10.22;54.17;102575.75;5056417;28;46725;-79
2022/02/11 16:47:06;;;;;;;;;3.00;2.50;;;;;10.19;54.25;102578.50;5055278;28;46037;-75
2022/02/11 16:49:33;;;;;;;;;3.00;3.00;;;;;10.18;54.38;102578.56;5056337;28;45759;-78
2022/02/11 16:51:59;;;;;;;;;3.25;2.75;;;;;10.16;54.16;102577.72;5021860;28;45584;-77
2022/02/11 16:54:28;;;;;;;;;2.75;2.75;;;;;10.11;54.12;102577.91;5038801;28;46552;-78